createdAt,value
2018-01-26T00:00:56.573Z,5.63
2018-01-26T00:03:24.016Z,5.90
2018-01-26T00:05:51.594Z,6.10
2018-01-26T00:08:19.030Z,5.60
2018-01-26T00:10:46.505Z,6.90
2018-01-26T00:13:13.965Z,6.57
2018-01-26T00:15:41.397Z,6.67
2018-01-26T00:18:08.872Z,6.83
2018-01-26T00:20:36.254Z,6.27
2018-01-26T00:23:05.479Z,6.57
2018-01-26T00:25:33.670Z,7.00
2018-01-26T00:28:01.174Z,7.63
2018-01-26T00:30:28.938Z,7.17
2018-01-26T00:32:56.583Z,7.00
2018-01-26T00:35:24.069Z,7.10
2018-01-26T00:37:51.529Z,6.70
2018-01-26T00:40:19.073Z,8.00
2018-01-26T00:42:46.842Z,7.27
2018-01-26T00:45:14.297Z,7.90
2018-01-26T00:47:41.945Z,6.43
2018-01-26T00:50:09.350Z,7.07
2018-01-26T00:52:36.877Z,6.30
2018-01-26T00:55:04.337Z,7.23
2018-01-26T00:57:31.774Z,7.57
2018-01-26T00:59:59.226Z,7.20
2018-01-26T01:02:26.682Z,7.67
2018-01-26T01:04:54.260Z,6.83
2018-01-26T01:07:21.727Z,8.07
2018-01-26T01:09:49.181Z,7.53
2018-01-26T01:12:16.950Z,7.77
2018-01-26T01:14:44.582Z,7.00
2018-01-26T01:17:12.017Z,7.70
2018-01-26T01:19:40.241Z,6.77
2018-01-26T01:22:07.893Z,7.30
2018-01-26T01:24:35.350Z,6.47
2018-01-26T01:27:02.827Z,6.20
2018-01-26T01:29:30.257Z,7.00
2018-01-26T01:31:57.842Z,7.30
2018-01-26T01:34:25.488Z,7.00
2018-01-26T01:36:53.002Z,8.17
2018-01-26T01:39:20.437Z,7.13
2018-01-26T01:41:47.977Z,6.87
2018-01-26T01:44:15.409Z,6.37
2018-01-26T01:46:42.838Z,6.83
2018-01-26T01:49:16.189Z,7.10
2018-01-26T01:51:43.618Z,7.20
2018-01-26T01:54:11.110Z,6.93
2018-01-26T01:56:38.546Z,6.60
2018-01-26T01:59:05.966Z,7.60
2018-01-26T02:01:33.477Z,7.97
2018-01-26T02:04:01.130Z,8.30
2018-01-26T02:06:28.601Z,8.73
2018-01-26T02:08:56.157Z,7.90
2018-01-26T02:11:23.589Z,7.83
2018-01-26T02:13:51.025Z,7.73
2018-01-26T02:16:18.455Z,7.93
2018-01-26T02:18:45.906Z,6.37
2018-01-26T02:21:13.449Z,8.63
2018-01-26T02:23:58.384Z,7.73
2018-01-26T02:26:25.878Z,7.67
2018-01-26T02:28:53.318Z,9.63
2018-01-26T02:31:20.747Z,7.80
2018-01-26T02:33:48.938Z,7.20
2018-01-26T02:36:16.630Z,7.77
2018-01-26T02:38:44.257Z,7.03
2018-01-26T02:41:11.846Z,8.03
2018-01-26T02:43:39.309Z,7.20
2018-01-26T02:46:07.074Z,8.37
2018-01-26T02:48:34.509Z,7.43
2018-01-26T02:51:01.941Z,7.83
2018-01-26T02:53:29.361Z,6.90
2018-01-26T02:55:56.806Z,7.10
2018-01-26T02:58:24.233Z,6.30
2018-01-26T03:00:51.827Z,6.70
2018-01-26T03:03:19.253Z,8.07
2018-01-26T03:05:46.681Z,7.40
2018-01-26T03:08:14.193Z,7.90
2018-01-26T03:10:41.625Z,6.80
2018-01-26T03:13:09.049Z,7.30
2018-01-26T03:15:37.249Z,6.80
2018-01-26T03:18:04.938Z,6.40
2018-01-26T03:20:32.410Z,7.27
2018-01-26T03:23:00.037Z,5.90
2018-01-26T03:25:27.469Z,8.23
2018-01-26T03:27:55.660Z,9.57
2018-01-26T03:30:23.157Z,8.80
2018-01-26T03:32:50.794Z,7.63
2018-01-26T03:35:18.226Z,8.93
2018-01-26T03:37:46.762Z,7.67
2018-01-26T03:40:14.376Z,7.67
2018-01-26T03:42:42.565Z,8.33
2018-01-26T03:45:10.161Z,7.50
2018-01-26T03:47:37.698Z,7.17
2018-01-26T03:50:05.286Z,8.23
2018-01-26T03:52:38.301Z,8.50
2018-01-26T03:55:05.741Z,8.10
2018-01-26T03:57:33.369Z,7.73
2018-01-26T04:00:00.867Z,8.43
2018-01-26T04:02:28.310Z,7.73
2018-01-26T04:04:55.737Z,8.20
2018-01-26T04:07:23.230Z,7.57
2018-01-26T04:09:50.677Z,7.40
2018-01-26T04:12:18.122Z,7.87
2018-01-26T04:14:45.696Z,8.50
2018-01-26T04:17:13.154Z,7.27
2018-01-26T04:19:40.582Z,7.80
2018-01-26T04:22:08.010Z,8.80
2018-01-26T04:24:35.446Z,7.53
2018-01-26T04:27:02.869Z,7.90
2018-01-26T04:29:30.342Z,6.93
2018-01-26T04:31:57.842Z,7.83
2018-01-26T04:34:25.270Z,8.13
2018-01-26T04:36:52.818Z,8.40
2018-01-26T04:39:20.273Z,9.30
2018-01-26T04:41:47.729Z,8.63
2018-01-26T04:44:15.148Z,8.23
2018-01-26T04:46:42.584Z,7.40
2018-01-26T04:49:10.110Z,9.07
2018-01-26T04:51:37.565Z,9.20
2018-01-26T04:54:05.019Z,8.00
2018-01-26T04:56:32.669Z,7.90
2018-01-26T04:59:00.245Z,7.80
2018-01-26T05:01:27.677Z,7.20
2018-01-26T05:03:55.170Z,7.70
2018-01-26T05:06:22.622Z,8.80
2018-01-26T05:08:50.253Z,7.17
2018-01-26T05:11:17.724Z,10.60
2018-01-26T05:13:45.202Z,8.53
2018-01-26T05:16:12.749Z,8.60
2018-01-26T05:18:40.221Z,7.27
2018-01-26T05:21:07.849Z,9.00
2018-01-26T05:23:35.289Z,10.30
2018-01-26T05:26:03.700Z,8.43
2018-01-26T05:28:31.118Z,7.60
2018-01-26T05:30:59.350Z,8.50
2018-01-26T05:33:26.805Z,10.20
2018-01-26T05:35:54.444Z,7.90
2018-01-26T05:38:21.962Z,8.53
2018-01-26T05:40:49.394Z,8.30
2018-01-26T05:43:16.951Z,7.70
2018-01-26T05:45:44.477Z,7.80
2018-01-26T05:48:12.071Z,7.03
2018-01-26T05:50:39.625Z,8.03
2018-01-26T05:53:07.275Z,6.93
2018-01-26T05:55:34.853Z,7.40
2018-01-26T05:58:02.298Z,7.63
2018-01-26T06:00:29.730Z,7.70
2018-01-26T06:02:57.161Z,7.67
2018-01-26T06:05:24.682Z,7.57
2018-01-26T06:07:52.305Z,9.27
2018-01-26T06:10:19.773Z,10.80
2018-01-26T06:12:47.210Z,8.40
2018-01-26T06:15:15.618Z,9.53
2018-01-26T06:17:43.204Z,8.90
2018-01-26T06:20:10.745Z,10.00
2018-01-26T06:22:38.425Z,8.57
2018-01-26T06:25:05.850Z,7.77
2018-01-26T06:27:33.280Z,8.90
2018-01-26T06:30:00.705Z,10.00
2018-01-26T06:32:28.254Z,8.87
2018-01-26T06:34:55.682Z,8.93
2018-01-26T06:37:23.118Z,9.80
2018-01-26T06:39:50.546Z,8.70
2018-01-26T06:42:18.919Z,10.60
2018-01-26T06:44:46.462Z,8.60
2018-01-26T06:47:14.316Z,9.30
2018-01-26T06:49:41.994Z,10.63
2018-01-26T06:52:09.425Z,8.83
2018-01-26T06:54:36.855Z,7.50
2018-01-26T06:57:04.282Z,8.47
2018-01-26T06:59:31.825Z,10.23
2018-01-26T07:01:59.474Z,9.77
2018-01-26T07:04:26.951Z,7.70
2018-01-26T07:06:54.513Z,10.20
2018-01-26T07:09:21.966Z,9.60
2018-01-26T07:11:49.417Z,10.73
2018-01-26T07:14:17.049Z,9.17
2018-01-26T07:16:44.554Z,9.00
2018-01-26T07:19:12.018Z,8.90
2018-01-26T07:21:39.443Z,9.27
2018-01-26T07:24:07.018Z,9.20
2018-01-26T07:26:34.449Z,7.60
2018-01-26T07:29:01.885Z,9.80
2018-01-26T07:31:29.404Z,8.50
2018-01-26T07:33:56.834Z,8.70
2018-01-26T07:36:24.261Z,9.43
2018-01-26T07:38:51.688Z,9.53
2018-01-26T07:41:19.221Z,8.90
2018-01-26T07:43:46.666Z,9.57
2018-01-26T07:46:14.098Z,8.80
2018-01-26T07:48:41.598Z,9.50
2018-01-26T07:51:09.021Z,8.10
2018-01-26T07:53:36.509Z,8.63
2018-01-26T07:56:04.142Z,8.40
2018-01-26T07:58:31.734Z,8.43
2018-01-26T08:00:59.161Z,9.17
2018-01-26T08:03:26.589Z,9.70
2018-01-26T08:05:54.111Z,10.33
2018-01-26T08:08:21.541Z,9.33
2018-01-26T08:10:48.965Z,10.17
2018-01-26T08:13:16.402Z,10.70
2018-01-26T08:15:43.938Z,8.90
2018-01-26T08:18:11.401Z,9.57
2018-01-26T08:20:38.825Z,7.33
2018-01-26T08:23:06.249Z,11.20
2018-01-26T08:25:33.678Z,12.10
2018-01-26T08:28:01.097Z,10.67
2018-01-26T08:30:28.555Z,9.60
2018-01-26T08:32:56.078Z,8.63
2018-01-26T08:35:23.552Z,9.27
2018-01-26T08:37:50.949Z,9.60
2018-01-26T08:40:18.449Z,10.07
2018-01-26T08:42:45.869Z,9.50
2018-01-26T08:45:13.439Z,9.10
2018-01-26T08:47:41.069Z,10.07
2018-01-26T08:50:08.542Z,8.97
2018-01-26T08:52:36.009Z,8.90
2018-01-26T08:55:03.482Z,9.00
2018-01-26T08:57:30.930Z,8.97
2018-01-26T08:59:58.371Z,9.00
2018-01-26T09:02:25.950Z,8.13
2018-01-26T09:04:53.390Z,9.40
2018-01-26T09:07:20.809Z,10.00
2018-01-26T09:09:48.318Z,9.27
2018-01-26T09:12:16.019Z,8.93
2018-01-26T09:14:43.542Z,10.27
2018-01-26T09:17:11.028Z,8.50
2018-01-26T09:19:38.462Z,9.87
2018-01-26T09:22:06.095Z,8.33
2018-01-26T09:24:33.582Z,8.83
2018-01-26T09:27:01.030Z,8.17
2018-01-26T09:29:28.497Z,9.00
2018-01-26T09:31:56.059Z,9.30
2018-01-26T09:34:23.485Z,8.53
2018-01-26T09:36:50.901Z,9.60
2018-01-26T09:39:18.328Z,9.07
2018-01-26T09:41:45.889Z,9.33
2018-01-26T09:44:13.377Z,7.90
2018-01-26T09:46:40.991Z,8.50
2018-01-26T09:49:08.575Z,9.03
2018-01-26T09:51:36.266Z,9.67
2018-01-26T09:54:03.794Z,10.80
2018-01-26T09:56:31.254Z,9.60
2018-01-26T09:58:58.886Z,9.10
2018-01-26T10:01:26.322Z,8.33
2018-01-26T10:03:54.513Z,9.90
2018-01-26T10:06:21.933Z,9.70
2018-01-26T10:08:50.572Z,9.60
2018-01-26T10:11:18.742Z,9.30
2018-01-26T10:13:46.162Z,8.50
2018-01-26T10:16:13.591Z,8.90
2018-01-26T10:18:41.035Z,9.60
2018-01-26T10:21:08.784Z,10.13
2018-01-26T10:23:36.227Z,9.70
2018-01-26T10:26:03.829Z,10.47
2018-01-26T10:28:31.251Z,10.77
2018-01-26T10:30:58.685Z,10.87
2018-01-26T10:33:26.118Z,9.00
2018-01-26T10:35:53.544Z,9.80
2018-01-26T10:38:21.006Z,10.03
2018-01-26T10:40:48.566Z,11.07
2018-01-26T10:43:16.199Z,11.37
2018-01-26T10:45:43.670Z,11.10
2018-01-26T10:48:11.095Z,9.17
2018-01-26T10:50:39.302Z,11.13
2018-01-26T10:53:06.778Z,10.90
2018-01-26T10:55:34.217Z,11.30
2018-01-26T10:58:01.641Z,11.50
2018-01-26T11:00:29.115Z,12.50
2018-01-26T11:02:56.505Z,11.13
2018-01-26T11:05:24.062Z,10.47
2018-01-26T11:07:51.702Z,9.50
2018-01-26T11:10:19.282Z,11.87
2018-01-26T11:12:46.746Z,10.47
2018-01-26T11:15:14.206Z,11.63
2018-01-26T11:17:41.833Z,10.00
2018-01-26T11:20:09.330Z,10.20
2018-01-26T11:22:37.022Z,11.50
2018-01-26T11:25:04.738Z,9.40
2018-01-26T11:27:32.428Z,9.90
2018-01-26T11:29:59.874Z,7.60
2018-01-26T11:32:27.638Z,9.70
2018-01-26T11:34:55.270Z,10.93
2018-01-26T11:37:22.758Z,8.37
2018-01-26T11:39:50.182Z,9.00
2018-01-26T11:42:17.777Z,10.97
2018-01-26T11:44:45.204Z,9.60
2018-01-26T11:47:12.635Z,10.23
2018-01-26T11:49:40.146Z,10.83
2018-01-26T11:52:07.578Z,11.10
2018-01-26T11:54:35.010Z,11.70
2018-01-26T11:57:02.438Z,12.10
2018-01-26T11:59:29.982Z,11.23
2018-01-26T12:01:57.421Z,11.00
2018-01-26T12:04:24.893Z,11.13
2018-01-26T12:06:52.354Z,10.23
2018-01-26T12:09:19.813Z,10.20
2018-01-26T12:11:47.454Z,10.30
2018-01-26T12:14:15.034Z,9.37
2018-01-26T12:16:42.683Z,11.27
2018-01-26T12:19:10.131Z,11.10
2018-01-26T12:21:37.626Z,10.30
2018-01-26T12:24:05.074Z,10.00
2018-01-26T12:26:32.542Z,12.70
2018-01-26T12:29:00.090Z,10.47
2018-01-26T12:31:27.517Z,9.97
2018-01-26T12:33:54.946Z,12.10
2018-01-26T12:36:22.386Z,11.50
2018-01-26T12:38:49.822Z,10.20
2018-01-26T12:41:17.249Z,10.43
2018-01-26T12:43:44.734Z,9.70
2018-01-26T12:46:12.170Z,10.63
2018-01-26T12:48:39.754Z,10.37
2018-01-26T12:51:07.212Z,10.40
2018-01-26T12:53:34.666Z,9.20
2018-01-26T12:56:02.318Z,8.90
2018-01-26T12:58:29.785Z,8.70
2018-01-26T13:00:57.214Z,9.60
2018-01-26T13:03:24.806Z,9.40
2018-01-26T13:05:52.761Z,10.50
2018-01-26T13:08:20.206Z,8.40
2018-01-26T13:10:47.689Z,9.53
2018-01-26T13:13:15.250Z,10.77
2018-01-26T13:15:42.713Z,9.70
2018-01-26T13:18:10.136Z,11.17
2018-01-26T13:20:37.558Z,10.80
2018-01-26T13:23:04.981Z,9.53
2018-01-26T13:25:32.537Z,12.20
2018-01-26T13:27:59.970Z,10.00
2018-01-26T13:30:27.398Z,10.33
2018-01-26T13:32:54.830Z,10.40
2018-01-26T13:35:22.370Z,10.70
2018-01-26T13:37:49.801Z,9.77
2018-01-26T13:40:17.295Z,11.07
2018-01-26T13:42:44.725Z,11.27
2018-01-26T13:45:12.153Z,11.10
2018-01-26T13:47:39.666Z,9.73
2018-01-26T13:50:07.299Z,12.50
2018-01-26T13:52:34.881Z,11.07
2018-01-26T13:55:02.328Z,12.37
2018-01-26T13:57:29.749Z,12.13
2018-01-26T13:59:57.176Z,12.17
2018-01-26T14:02:24.605Z,10.60
2018-01-26T14:04:52.038Z,12.50
2018-01-26T14:07:19.474Z,11.07
2018-01-26T14:09:47.665Z,11.43
2018-01-26T14:12:15.097Z,11.20
2018-01-26T14:14:42.525Z,11.37
2018-01-26T14:17:09.994Z,9.80
2018-01-26T14:19:37.472Z,11.77
2018-01-26T14:22:04.998Z,10.93
2018-01-26T14:24:32.427Z,10.00
2018-01-26T14:26:59.858Z,11.83
2018-01-26T14:29:27.373Z,11.23
2018-01-26T14:31:55.129Z,11.00
2018-01-26T14:34:22.556Z,11.03
2018-01-26T14:36:50.049Z,12.30
2018-01-26T14:39:17.477Z,12.23
2018-01-26T14:41:44.966Z,12.33
2018-01-26T14:44:12.394Z,11.30
2018-01-26T14:46:39.817Z,11.00
2018-01-26T14:49:07.334Z,11.67
2018-01-26T14:51:34.793Z,12.37
2018-01-26T14:54:02.230Z,12.20
2018-01-26T14:56:29.654Z,12.10
2018-01-26T14:58:57.085Z,12.30
2018-01-26T15:01:24.563Z,11.00
2018-01-26T15:03:51.990Z,11.30
2018-01-26T15:06:19.421Z,11.77
2018-01-26T15:08:46.910Z,11.03
2018-01-26T15:11:14.337Z,11.83
2018-01-26T15:13:41.825Z,12.17
2018-01-26T15:16:09.383Z,11.53
2018-01-26T15:18:36.817Z,12.90
2018-01-26T15:21:04.236Z,11.13
2018-01-26T15:23:31.674Z,11.83
2018-01-26T15:25:59.205Z,11.33
2018-01-26T15:28:26.851Z,10.47
2018-01-26T15:30:55.017Z,12.10
2018-01-26T15:33:22.460Z,11.43
2018-01-26T15:35:49.961Z,10.60
2018-01-26T15:38:17.610Z,12.70
2018-01-26T15:40:45.090Z,9.90
2018-01-26T15:43:12.636Z,10.87
2018-01-26T15:45:40.097Z,11.87
2018-01-26T15:48:07.747Z,11.40
2018-01-26T15:50:35.322Z,11.63
2018-01-26T15:53:02.777Z,11.20
2018-01-26T15:55:30.419Z,11.50
2018-01-26T15:57:57.858Z,11.67
2018-01-26T16:00:26.077Z,11.17
2018-01-26T16:02:54.186Z,9.73
2018-01-26T16:05:21.781Z,11.10
2018-01-26T16:07:49.379Z,11.70
2018-01-26T16:10:16.830Z,10.47
2018-01-26T16:12:44.270Z,9.90
2018-01-26T16:15:11.750Z,9.77
2018-01-26T16:17:39.206Z,10.80
2018-01-26T16:20:06.851Z,11.50
2018-01-26T16:22:34.426Z,11.70
2018-01-26T16:25:02.058Z,11.47
2018-01-26T16:27:29.519Z,10.13
2018-01-26T16:29:57.109Z,10.67
2018-01-26T16:32:25.062Z,10.17
2018-01-26T16:34:52.570Z,11.93
2018-01-26T16:37:19.997Z,10.90
2018-01-26T16:39:47.550Z,11.13
2018-01-26T16:42:15.015Z,10.63
2018-01-26T16:44:42.465Z,11.43
2018-01-26T16:47:10.065Z,12.53
2018-01-26T16:49:37.882Z,11.40
2018-01-26T16:52:05.462Z,12.13
2018-01-26T16:54:32.913Z,11.60
2018-01-26T16:57:00.341Z,10.97
2018-01-26T16:59:27.773Z,12.23
2018-01-26T17:01:55.289Z,10.60
2018-01-26T17:04:22.748Z,13.97
2018-01-26T17:06:50.174Z,11.27
2018-01-26T17:09:17.604Z,15.27
2018-01-26T17:11:45.122Z,11.90
2018-01-26T17:14:12.561Z,11.57
2018-01-26T17:16:39.985Z,13.03
2018-01-26T17:19:07.499Z,12.90
2018-01-26T17:21:34.949Z,12.50
2018-01-26T17:24:02.723Z,10.80
2018-01-26T17:26:30.150Z,10.70
2018-01-26T17:28:57.586Z,11.80
2018-01-26T17:31:25.010Z,10.83
2018-01-26T17:33:52.446Z,11.10
2018-01-26T17:36:19.906Z,11.77
2018-01-26T17:38:47.466Z,12.70
2018-01-26T17:41:15.099Z,11.20
2018-01-26T17:43:42.535Z,10.90
2018-01-26T17:46:10.949Z,10.83
2018-01-26T17:48:38.443Z,10.67
2018-01-26T17:51:05.986Z,10.37
2018-01-26T17:53:33.618Z,12.20
2018-01-26T17:56:01.201Z,14.00
2018-01-26T17:58:28.666Z,10.87
2018-01-26T18:00:56.097Z,11.53
2018-01-26T18:03:23.578Z,12.80
2018-01-26T18:05:51.040Z,11.63
2018-01-26T18:08:18.467Z,12.37
2018-01-26T18:10:45.890Z,12.20
2018-01-26T18:13:14.208Z,10.97
2018-01-26T18:15:41.693Z,12.37
2018-01-26T18:18:09.250Z,12.70
2018-01-26T18:20:36.892Z,10.83
2018-01-26T18:23:04.370Z,12.37
2018-01-26T18:25:31.930Z,13.30
2018-01-26T18:27:59.568Z,11.60
2018-01-26T18:30:27.050Z,11.63
2018-01-26T18:32:54.473Z,12.40
2018-01-26T18:35:21.974Z,14.33
2018-01-26T18:37:49.414Z,12.83
2018-01-26T18:40:16.894Z,14.03
2018-01-26T18:42:44.437Z,14.63
2018-01-26T18:45:11.890Z,15.60
2018-01-26T18:47:39.345Z,15.70
2018-01-26T18:50:07.521Z,12.60
2018-01-26T18:52:34.958Z,13.57
2018-01-26T18:55:02.431Z,13.47
2018-01-26T18:57:29.981Z,15.50
2018-01-26T18:59:57.569Z,14.20
2018-01-26T19:02:24.997Z,13.37
2018-01-26T19:04:52.482Z,14.30
2018-01-26T19:07:19.917Z,15.17
2018-01-26T19:09:47.350Z,13.97
2018-01-26T19:12:14.862Z,14.70
2018-01-26T19:14:42.504Z,12.73
2018-01-26T19:17:09.949Z,13.07
2018-01-26T19:19:37.531Z,12.50
2018-01-26T19:22:04.957Z,13.00
2018-01-26T19:24:32.461Z,14.17
2018-01-26T19:26:59.925Z,14.23
2018-01-26T19:29:27.354Z,16.53
2018-01-26T19:31:54.782Z,15.70
2018-01-26T19:34:22.210Z,14.17
2018-01-26T19:36:49.746Z,17.63
2018-01-26T19:39:17.188Z,17.70
2018-01-26T19:41:44.614Z,17.60
2018-01-26T19:44:12.057Z,16.30
2018-01-26T19:46:39.489Z,17.77
2018-01-26T19:49:06.922Z,16.40
2018-01-26T19:51:34.485Z,17.23
2018-01-26T19:54:01.960Z,15.90
2018-01-26T19:56:29.391Z,14.73
2018-01-26T19:58:56.870Z,15.23
2018-01-26T20:01:24.293Z,14.80
2018-01-26T20:04:05.425Z,15.43
2018-01-26T20:06:50.489Z,15.37
2018-01-26T20:09:27.491Z,13.93
2018-01-26T20:12:00.518Z,11.87
2018-01-26T20:14:34.962Z,12.40
2018-01-26T20:17:02.422Z,13.83
2018-01-26T20:19:29.981Z,13.37
2018-01-26T20:21:57.746Z,12.60
2018-01-26T20:24:25.190Z,15.00
2018-01-26T20:26:52.666Z,15.93
2018-01-26T20:29:20.302Z,14.80
2018-01-26T20:31:47.889Z,16.10
2018-01-26T20:34:15.309Z,14.53
2018-01-26T20:36:42.802Z,12.93
2018-01-26T20:39:10.229Z,14.30
2018-01-26T20:41:37.719Z,16.47
2018-01-26T20:44:05.187Z,16.90
2018-01-26T20:46:32.613Z,20.00
2018-01-26T20:49:00.093Z,20.90
2018-01-26T20:51:27.853Z,18.47
2018-01-26T20:53:55.290Z,16.67
2018-01-26T20:56:22.770Z,16.00
2018-01-26T20:58:50.229Z,19.17
2018-01-26T21:01:17.876Z,24.10
2018-01-26T21:03:45.323Z,19.27
2018-01-26T21:06:12.762Z,21.50
2018-01-26T21:08:40.958Z,26.67
2018-01-26T21:11:08.442Z,25.23
2018-01-26T21:13:35.897Z,21.37
2018-01-26T21:16:03.329Z,20.90
2018-01-26T21:18:30.818Z,22.30
2018-01-26T21:20:58.563Z,20.80
2018-01-26T21:23:25.993Z,22.37
2018-01-26T21:25:53.501Z,22.80
2018-01-26T21:28:20.958Z,19.47
2018-01-26T21:30:48.599Z,19.33
2018-01-26T21:33:16.055Z,20.57
2018-01-26T21:35:43.501Z,20.70
2018-01-26T21:38:10.929Z,16.20
2018-01-26T21:40:39.147Z,16.80
2018-01-26T21:43:06.568Z,18.00
2018-01-26T21:45:34.087Z,17.63
2018-01-26T21:48:01.510Z,17.57
2018-01-26T21:50:28.933Z,16.43
2018-01-26T21:52:56.453Z,18.80
2018-01-26T21:55:23.923Z,18.03
2018-01-26T21:57:51.445Z,17.47
2018-01-26T22:00:18.874Z,16.53
2018-01-26T22:02:46.477Z,15.77
2018-01-26T22:05:15.793Z,16.17
2018-01-26T22:07:43.235Z,17.00
2018-01-26T22:10:10.807Z,16.37
2018-01-26T22:12:38.456Z,15.60
2018-01-26T22:15:05.880Z,16.20
2018-01-26T22:17:34.106Z,15.37
2018-01-26T22:20:01.874Z,15.00
2018-01-26T22:22:29.311Z,16.70
2018-01-26T22:24:56.789Z,17.10
2018-01-26T22:27:24.226Z,13.73
2018-01-26T22:29:51.657Z,17.37
2018-01-26T22:32:19.166Z,14.70
2018-01-26T22:34:47.543Z,14.93
2018-01-26T22:37:14.996Z,16.30
2018-01-26T22:39:42.429Z,14.37
2018-01-26T22:42:09.914Z,14.60
2018-01-26T22:44:37.547Z,15.80
2018-01-26T22:47:05.049Z,16.40
2018-01-26T22:49:32.593Z,17.20
2018-01-26T22:52:00.243Z,16.43
2018-01-26T22:54:27.719Z,14.33
2018-01-26T22:56:55.162Z,17.37
2018-01-26T22:59:22.730Z,13.80
2018-01-26T23:01:50.382Z,14.70
2018-01-26T23:04:17.826Z,16.20
2018-01-26T23:06:45.419Z,13.93
2018-01-26T23:09:12.886Z,14.37
2018-01-26T23:11:40.274Z,16.17
2018-01-26T23:14:07.706Z,14.50
2018-01-26T23:16:35.250Z,15.70
2018-01-26T23:19:02.683Z,17.57
2018-01-26T23:21:30.097Z,16.57
2018-01-26T23:23:57.529Z,17.33
2018-01-26T23:26:24.959Z,16.50
2018-01-26T23:28:52.429Z,18.27
2018-01-26T23:31:19.890Z,15.50
2018-01-26T23:33:47.454Z,14.13
2018-01-26T23:36:15.235Z,16.03
2018-01-26T23:38:42.853Z,16.27
2018-01-26T23:41:10.445Z,17.80
2018-01-26T23:43:38.197Z,15.70
2018-01-26T23:46:05.634Z,14.47
2018-01-26T23:48:33.065Z,17.47
2018-01-26T23:51:01.402Z,12.87
2018-01-26T23:53:28.835Z,16.27
2018-01-26T23:55:56.422Z,15.93
2018-01-26T23:58:23.870Z,16.07
